createdAt,value
2023-05-19T00:01:17.814Z,14.75
2023-05-19T00:04:02.967Z,18.55
2023-05-19T00:06:32.775Z,11.35
2023-05-19T00:09:03.869Z,15.43
2023-05-19T00:11:31.703Z,10.87
2023-05-19T00:14:00.832Z,17.45
2023-05-19T00:16:30.068Z,18.95
2023-05-19T00:19:03.153Z,17.85
2023-05-19T00:21:32.844Z,20.30
2023-05-19T00:24:00.412Z,19.27
2023-05-19T00:26:29.232Z,16.73
2023-05-19T00:29:05.966Z,19.75
2023-05-19T00:31:34.376Z,19.27
2023-05-19T00:34:02.340Z,19.80
2023-05-19T00:36:29.979Z,18.63
2023-05-19T00:38:57.629Z,18.00
2023-05-19T00:41:25.246Z,16.38
2023-05-19T00:43:52.952Z,17.85
2023-05-19T00:46:20.660Z,17.27
2023-05-19T00:48:48.512Z,21.07
2023-05-19T00:51:17.367Z,17.05
2023-05-19T00:53:49.299Z,21.55
2023-05-19T00:56:18.593Z,20.83
2023-05-19T00:58:46.882Z,27.50
2023-05-19T01:01:17.371Z,21.33
2023-05-19T01:03:45.452Z,16.70
2023-05-19T01:06:13.215Z,21.83
2023-05-19T01:08:41.321Z,16.52
2023-05-19T01:11:08.901Z,25.80
2023-05-19T01:13:37.512Z,21.27
2023-05-19T01:16:26.876Z,22.77
2023-05-19T01:19:05.407Z,16.80
2023-05-19T01:21:44.586Z,22.90
2023-05-19T01:24:23.030Z,25.05
2023-05-19T01:27:03.404Z,26.87
2023-05-19T01:30:15.293Z,22.98
2023-05-19T01:32:45.645Z,25.05
2023-05-19T01:35:16.843Z,26.35
2023-05-19T01:37:46.857Z,17.85
2023-05-19T02:12:19.593Z,21.85
2023-05-19T03:53:14.592Z,18.57
2023-05-19T03:55:44.521Z,21.42
2023-05-19T03:58:14.686Z,22.00
2023-05-19T04:00:42.732Z,29.00
2023-05-19T04:03:10.435Z,18.15
2023-05-19T04:05:39.119Z,23.57
2023-05-19T04:08:06.701Z,19.95
2023-05-19T04:10:34.736Z,22.52
2023-05-19T04:13:02.500Z,22.70
2023-05-19T04:15:30.232Z,24.80
2023-05-19T04:17:57.879Z,24.13
2023-05-19T04:20:25.675Z,24.23
2023-05-19T04:22:53.238Z,27.30
2023-05-19T04:25:20.799Z,21.48
2023-05-19T04:27:48.959Z,19.58
2023-05-19T04:30:22.502Z,23.70
2023-05-19T04:32:51.349Z,19.35
2023-05-19T04:35:19.657Z,23.35
2023-05-19T04:37:48.610Z,24.65
2023-05-19T04:40:21.226Z,27.85
2023-05-19T04:42:49.917Z,21.30
2023-05-19T04:45:17.577Z,22.30
2023-05-19T04:47:48.363Z,23.25
2023-05-19T04:50:16.985Z,24.70
2023-05-19T04:52:48.067Z,25.67
2023-05-19T04:55:17.396Z,21.87
2023-05-19T04:57:46.051Z,25.98
2023-05-19T05:00:15.112Z,28.38
2023-05-19T05:02:54.034Z,21.77
2023-05-19T05:05:22.596Z,20.33
2023-05-19T05:07:50.804Z,18.73
2023-05-19T05:10:18.459Z,15.52
2023-05-19T05:12:47.495Z,17.02
2023-05-19T05:15:15.568Z,20.23
2023-05-19T05:17:43.863Z,20.70
2023-05-19T05:20:12.845Z,25.63
2023-05-19T05:22:41.059Z,26.02
2023-05-19T05:25:10.520Z,18.48
2023-05-19T05:27:38.606Z,20.35
2023-05-19T05:30:08.414Z,19.80
2023-05-19T05:32:37.434Z,23.03
2023-05-19T05:35:11.008Z,23.08
2023-05-19T05:37:39.550Z,19.88
2023-05-19T05:40:07.980Z,21.75
2023-05-19T05:42:36.334Z,23.73
2023-05-19T05:45:04.295Z,19.80
2023-05-19T05:47:32.849Z,23.05
2023-05-19T05:50:01.417Z,20.70
2023-05-19T05:52:31.075Z,22.70
2023-05-19T05:55:00.725Z,17.60
2023-05-19T05:57:30.876Z,24.50
2023-05-19T05:59:58.542Z,17.73
2023-05-19T06:02:27.865Z,19.88
2023-05-19T06:04:57.964Z,20.42
2023-05-19T06:07:26.323Z,23.15
2023-05-19T06:09:54.143Z,20.00
2023-05-19T06:12:23.068Z,23.13
2023-05-19T06:14:52.097Z,21.23
2023-05-19T06:17:48.603Z,24.90
2023-05-19T06:20:16.387Z,21.33
2023-05-19T06:22:44.084Z,19.27
2023-05-19T06:25:12.310Z,25.48
2023-05-19T06:27:39.942Z,21.80
2023-05-19T06:30:08.854Z,18.73
2023-05-19T06:32:44.923Z,22.00
2023-05-19T06:35:13.187Z,23.83
2023-05-19T06:37:40.882Z,18.33
2023-05-19T06:40:09.200Z,20.63
2023-05-19T06:42:38.511Z,23.88
2023-05-19T06:45:15.297Z,18.83
2023-05-19T06:47:44.546Z,23.37
2023-05-19T06:50:12.397Z,18.23
2023-05-19T06:52:42.951Z,21.70
2023-05-19T06:55:10.645Z,21.63
2023-05-19T06:57:39.483Z,21.92
2023-05-19T07:00:13.883Z,18.90
2023-05-19T07:02:44.857Z,22.15
2023-05-19T07:05:12.850Z,20.45
2023-05-19T07:07:42.010Z,21.20
2023-05-19T07:10:14.045Z,21.88
2023-05-19T07:12:42.276Z,22.90
2023-05-19T07:15:10.353Z,23.13
2023-05-19T07:17:38.801Z,22.70
2023-05-19T07:20:07.073Z,16.23
2023-05-19T07:22:38.695Z,20.38
2023-05-19T07:25:08.345Z,19.30
2023-05-19T07:27:36.782Z,20.77
2023-05-19T07:30:04.822Z,18.48
2023-05-19T07:32:32.904Z,22.88
2023-05-19T07:35:00.553Z,17.50
2023-05-19T07:37:28.233Z,19.50
2023-05-19T07:39:55.978Z,24.58
2023-05-19T07:42:24.123Z,18.63
2023-05-19T07:44:51.734Z,15.80
2023-05-19T07:47:19.365Z,24.27
2023-05-19T07:49:49.064Z,19.70
2023-05-19T07:52:19.585Z,22.10
2023-05-19T07:54:47.241Z,18.33
2023-05-19T07:57:14.940Z,16.13
2023-05-19T07:59:42.569Z,23.67
2023-05-19T08:03:13.573Z,19.17
2023-05-19T08:09:32.618Z,30.50
2023-05-19T17:52:43.342Z,19.23
2023-05-19T17:59:19.032Z,17.10
2023-05-19T18:01:46.905Z,13.95
2023-05-19T18:04:32.919Z,14.48
2023-05-19T18:07:02.619Z,18.83
2023-05-19T18:09:30.839Z,13.47
2023-05-19T18:12:02.164Z,13.77
2023-05-19T18:14:30.061Z,14.68
2023-05-19T18:16:57.773Z,12.82
2023-05-19T18:19:25.841Z,13.93
2023-05-19T18:21:53.513Z,14.00
2023-05-19T18:24:21.337Z,11.95
2023-05-19T18:26:49.012Z,15.23
2023-05-19T18:29:16.788Z,14.38
2023-05-19T18:31:44.459Z,14.55
2023-05-19T18:34:12.686Z,15.73
2023-05-19T18:36:40.299Z,15.20
2023-05-19T18:39:07.947Z,16.60
2023-05-19T18:41:37.505Z,14.27
2023-05-19T18:44:07.990Z,14.85
2023-05-19T18:46:35.841Z,13.47
2023-05-19T18:49:03.935Z,14.60
2023-05-19T18:51:33.528Z,12.48
2023-05-19T18:54:01.139Z,19.77
2023-05-19T18:56:31.747Z,16.52
2023-05-19T18:58:59.446Z,13.03
2023-05-19T19:01:27.427Z,13.60
2023-05-19T19:04:29.320Z,14.98
2023-05-19T19:10:50.465Z,10.93
2023-05-19T19:13:20.098Z,12.97
2023-05-19T19:15:52.735Z,13.32
2023-05-19T19:18:23.175Z,15.82
2023-05-19T19:20:55.112Z,13.75
2023-05-19T19:23:27.387Z,12.10
2023-05-19T19:25:58.734Z,14.87
2023-05-19T19:28:27.052Z,14.65
2023-05-19T19:30:54.895Z,12.02
2023-05-19T19:33:23.358Z,16.48
2023-05-19T19:35:51.645Z,11.80
2023-05-19T19:38:19.709Z,13.83
2023-05-19T19:40:47.368Z,18.23
2023-05-19T19:43:15.938Z,17.08
2023-05-19T19:45:44.390Z,10.73
2023-05-19T19:48:12.985Z,13.43
2023-05-19T19:50:41.388Z,13.37
2023-05-19T19:53:10.489Z,14.65
2023-05-19T19:55:39.708Z,20.17
2023-05-19T19:58:08.809Z,13.52
2023-05-19T20:00:37.172Z,10.68
2023-05-19T20:03:06.949Z,16.80
2023-05-19T20:05:39.550Z,15.43
2023-05-19T20:08:09.192Z,14.70
2023-05-19T20:10:39.406Z,17.63
2023-05-19T20:13:09.222Z,16.08
2023-05-19T20:15:39.090Z,14.67
2023-05-19T20:18:07.151Z,12.18
2023-05-19T20:20:42.452Z,14.73
2023-05-19T20:23:12.867Z,16.95
2023-05-19T20:25:51.070Z,10.27
2023-05-19T20:28:31.110Z,11.70
2023-05-19T20:30:59.779Z,11.73
2023-05-19T20:33:27.605Z,15.13
2023-05-19T20:35:55.514Z,12.10
2023-05-19T20:39:02.578Z,14.13
2023-05-19T20:41:30.198Z,18.50
2023-05-19T20:43:57.874Z,17.20
2023-05-19T20:46:34.446Z,13.30
2023-05-19T20:49:11.159Z,13.40
2023-05-19T20:51:42.054Z,14.70
2023-05-19T20:54:09.770Z,13.53
2023-05-19T20:56:37.349Z,15.25
2023-05-19T20:59:05.457Z,18.08
2023-05-19T21:01:33.187Z,11.93
2023-05-19T21:25:59.676Z,13.65
2023-05-19T21:28:30.052Z,14.90
2023-05-19T21:30:57.777Z,10.32
2023-05-19T22:09:58.243Z,14.80
2023-05-19T22:12:26.827Z,19.83
2023-05-19T22:14:54.399Z,13.48
2023-05-19T22:17:22.152Z,19.77
2023-05-19T23:31:26.582Z,13.67
2023-05-19T23:33:54.616Z,15.30
2023-05-19T23:36:23.277Z,13.95
2023-05-19T23:38:51.061Z,17.73
2023-05-19T23:41:18.594Z,19.02
2023-05-19T23:43:46.329Z,12.20
2023-05-19T23:46:13.956Z,14.95
2023-05-19T23:48:41.666Z,20.98
2023-05-19T23:51:09.244Z,16.25
2023-05-19T23:53:36.913Z,17.38
2023-05-19T23:56:04.659Z,16.53
2023-05-19T23:58:32.294Z,17.00
